Time;durP1;ratioP1;P1;durP2;ratioP2;P2;SDS_P1;SDS_P2;PMS_P1;PMS_P2;Temp;Humidity;BMP_temperature;BMP_pressure;BME280_temperature;BME280_humidity;BME280_pressure;Samples;Min_cycle;Max_cycle;Signal;HPM_P1;HPM_P2
2023/09/07 00:02:21;;;;;;;8.50;6.00;;;;;;;21.86;55.62;100804.74;107882;1256;59997;-66
2023/09/07 00:05:08;;;;;;;11.30;6.10;;;;;;;21.83;55.69;100807.80;107832;1257;73014;-66
2023/09/07 00:07:36;;;;;;;6.60;5.40;;;;;;;21.87;55.78;100811.65;107862;1256;70673;-66
2023/09/07 00:10:05;;;;;;;9.70;5.90;;;;;;;21.82;55.74;100812.36;107845;1256;72678;-66
2023/09/07 00:12:33;;;;;;;10.10;5.80;;;;;;;21.90;55.70;100814.63;107897;1255;60492;-67
2023/09/07 00:15:00;;;;;;;8.20;5.80;;;;;;;21.92;55.52;100816.43;108114;1253;59575;-65
2023/09/07 00:17:28;;;;;;;8.60;5.80;;;;;;;21.89;55.77;100822.73;108090;1253;73093;-68
2023/09/07 00:19:56;;;;;;;14.20;6.40;;;;;;;21.89;55.75;100821.27;108076;1257;68884;-67
2023/09/07 00:22:25;;;;;;;9.60;5.20;;;;;;;21.88;55.72;100824.40;108042;1254;72702;-65
2023/09/07 00:24:53;;;;;;;8.00;6.20;;;;;;;21.94;55.49;100825.90;108029;1254;61684;-66
2023/09/07 00:27:22;;;;;;;10.50;5.90;;;;;;;21.85;55.62;100824.45;108046;1254;62198;-66
2023/09/07 00:29:49;;;;;;;10.80;5.70;;;;;;;21.72;56.13;100831.66;107927;1253;72345;-66
2023/09/07 00:32:17;;;;;;;10.30;5.40;;;;;;;21.73;55.99;100833.39;108011;1254;70403;-67
2023/09/07 00:34:44;;;;;;;8.90;5.80;;;;;;;21.68;56.16;100837.31;107979;1253;72431;-66
2023/09/07 00:37:12;;;;;;;8.10;5.90;;;;;;;21.55;56.60;100835.77;107869;1253;60370;-67
2023/09/07 00:39:39;;;;;;;7.90;5.60;;;;;;;21.73;56.14;100838.39;108067;1254;60147;-66
2023/09/07 00:42:06;;;;;;;11.70;5.70;;;;;;;21.82;55.95;100841.81;108015;1253;72977;-66
2023/09/07 00:44:34;;;;;;;8.20;5.70;;;;;;;21.95;55.52;100840.18;107873;1254;70043;-66
2023/09/07 00:47:02;;;;;;;7.20;5.40;;;;;;;21.91;55.54;100847.26;108039;1253;71469;-66
2023/09/07 00:49:29;;;;;;;9.10;5.10;;;;;;;21.84;55.54;100848.85;107891;1256;60714;-68
2023/09/07 00:51:57;;;;;;;8.80;5.80;;;;;;;21.74;55.72;100849.41;107835;1253;60020;-66
2023/09/07 00:54:24;;;;;;;7.70;5.70;;;;;;;21.60;56.06;100850.59;108053;1254;73038;-66
2023/09/07 00:56:52;;;;;;;9.50;5.20;;;;;;;21.63;56.24;100849.99;108078;1254;70749;-66
2023/09/07 00:59:19;;;;;;;9.50;5.30;;;;;;;21.59;56.22;100852.57;108043;1253;72482;-66
2023/09/07 01:01:48;;;;;;;8.50;5.60;;;;;;;21.57;56.25;100851.46;108007;1252;61713;-66
2023/09/07 01:04:18;;;;;;;8.70;5.90;;;;;;;21.53;56.39;100849.82;108062;1253;60280;-66
2023/09/07 01:06:52;;;;;;;11.50;5.40;;;;;;;21.74;55.92;100846.36;108057;1254;70817;-65
2023/09/07 01:09:21;;;;;;;7.90;5.60;;;;;;;21.93;55.50;100846.35;108066;1253;70026;-66
2023/09/07 01:11:50;;;;;;;10.60;5.80;;;;;;;22.06;54.95;100843.81;107951;1253;72431;-67
2023/09/07 01:14:17;;;;;;;8.50;5.80;;;;;;;22.00;55.04;100840.89;108129;1254;60476;-65
2023/09/07 01:16:45;;;;;;;9.40;5.60;;;;;;;22.08;54.74;100846.92;108273;1253;60033;-65
2023/09/07 01:19:12;;;;;;;9.50;6.00;;;;;;;22.06;54.69;100847.26;108092;1253;72251;-66
2023/09/07 01:21:40;;;;;;;12.20;5.70;;;;;;;21.97;54.78;100850.17;108104;1253;69908;-68
2023/09/07 01:24:11;;;;;;;10.60;5.80;;;;;;;21.84;54.98;100853.68;108203;1252;72732;-67
2023/09/07 01:26:42;;;;;;;;;;;;;;;21.80;54.98;100857.70;108089;1253;61566;-67
2023/09/07 01:29:09;;;;;;;10.50;5.90;;;;;;;21.69;55.25;100854.02;108128;1254;59507;-65
2023/09/07 01:31:38;;;;;;;7.90;5.50;;;;;;;21.74;55.17;100855.77;108138;1252;73477;-67
2023/09/07 01:34:08;;;;;;;9.80;5.90;;;;;;;21.77;55.27;100859.16;108103;1253;68045;-66
2023/09/07 01:36:36;;;;;;;5.20;4.20;;;;;;;21.87;54.80;100859.66;108091;1252;71390;-65
2023/09/07 01:39:04;;;;;;;7.80;5.80;;;;;;;21.87;54.77;100860.94;108114;1253;61872;-65
2023/09/07 01:41:31;;;;;;;9.70;5.40;;;;;;;21.77;54.84;100861.65;108159;1253;60182;-65
2023/09/07 01:43:59;;;;;;;9.80;5.80;;;;;;;21.66;55.12;100868.77;108248;1252;73817;-66
2023/09/07 01:46:26;;;;;;;8.90;5.90;;;;;;;21.67;55.33;100871.86;108318;1253;69758;-67
2023/09/07 01:48:54;;;;;;;11.50;6.50;;;;;;;21.70;55.28;100873.24;108297;1254;71339;-66
2023/09/07 01:51:22;;;;;;;9.20;5.70;;;;;;;21.66;55.48;100869.80;108405;1253;60517;-66
2023/09/07 01:53:49;;;;;;;13.50;6.10;;;;;;;21.65;55.37;100867.88;108386;1254;59282;-67
2023/09/07 01:56:16;;;;;;;9.90;5.70;;;;;;;21.54;55.60;100865.30;107864;1254;74098;-67
2023/09/07 01:58:44;;;;;;;8.40;6.00;;;;;;;21.59;55.60;100869.23;108046;1254;68996;-64
2023/09/07 02:01:21;;;;;;;8.60;6.10;;;;;;;21.58;55.55;100869.98;107881;1253;72654;-68
2023/09/07 02:03:49;;;;;;;10.00;5.90;;;;;;;21.43;55.95;100873.00;108213;1252;61919;-67
2023/09/07 02:06:16;;;;;;;7.90;5.60;;;;;;;21.48;55.71;100876.58;108085;1253;60996;-66
2023/09/07 02:08:44;;;;;;;7.80;5.70;;;;;;;21.53;55.68;100874.13;108086;1253;73243;-65
2023/09/07 02:11:11;;;;;;;8.30;5.70;;;;;;;21.59;55.37;100877.64;108100;1253;70223;-65
2023/09/07 02:13:42;;;;;;;8.20;5.60;;;;;;;21.59;55.35;100877.11;108099;1253;72454;-66
2023/09/07 02:16:10;;;;;;;7.80;5.40;;;;;;;21.55;55.28;100876.13;108143;1253;61617;-66
2023/09/07 02:18:39;;;;;;;8.00;5.50;;;;;;;21.51;55.55;100874.05;108057;1253;60317;-65
2023/09/07 02:21:07;;;;;;;9.30;6.00;;;;;;;21.51;55.56;100872.85;108050;1253;73768;-67
2023/09/07 02:23:36;;;;;;;8.60;5.60;;;;;;;21.44;55.54;100875.11;108070;1253;70509;-67
2023/09/07 02:26:04;;;;;;;14.70;6.20;;;;;;;21.29;55.82;100882.71;108010;1254;72688;-66
2023/09/07 02:28:32;;;;;;;10.50;6.00;;;;;;;21.08;56.58;100880.11;108022;1253;60483;-66
2023/09/07 02:31:04;;;;;;;6.60;5.50;;;;;;;21.00;56.62;100880.27;107982;1253;60303;-65
2023/09/07 02:33:32;;;;;;;9.80;5.90;;;;;;;21.12;56.31;100883.92;107995;1253;71610;-66
2023/09/07 02:36:00;;;;;;;10.80;6.20;;;;;;;21.05;56.57;100884.04;108037;1253;68574;-66
2023/09/07 02:38:28;;;;;;;9.10;5.70;;;;;;;21.15;56.30;100882.61;108018;1253;71356;-66
2023/09/07 02:40:57;;;;;;;15.50;6.00;;;;;;;21.16;56.20;100888.63;108027;1253;60459;-67
2023/09/07 02:43:24;;;;;;;8.20;5.60;;;;;;;21.21;56.13;100889.02;108166;1253;60268;-66
2023/09/07 02:45:52;;;;;;;8.60;5.70;;;;;;;21.13;56.29;100889.05;108006;1254;72603;-66
2023/09/07 02:48:21;;;;;;;11.70;6.00;;;;;;;21.03;56.44;100890.42;108039;1257;70041;-66
2023/09/07 02:50:50;;;;;;;8.30;5.40;;;;;;;20.97;56.67;100897.41;107855;1253;71817;-64
2023/09/07 02:53:18;;;;;;;12.50;5.50;;;;;;;20.94;56.58;100896.96;108146;1252;61694;-65
2023/09/07 02:55:47;;;;;;;9.60;6.00;;;;;;;20.96;56.62;100900.23;108094;1253;59987;-66
2023/09/07 02:58:14;;;;;;;8.70;6.20;;;;;;;20.87;56.61;100905.64;108171;1252;72594;-66
2023/09/07 03:00:46;;;;;;;11.50;5.90;;;;;;;20.82;56.95;100902.92;108023;1253;69990;-66
2023/09/07 03:03:15;;;;;;;10.60;5.40;;;;;;;20.79;57.06;100904.23;108152;1253;72689;-66
2023/09/07 03:05:44;;;;;;;8.00;5.80;;;;;;;20.78;57.04;100906.06;108204;1252;60835;-67
2023/09/07 03:08:13;;;;;;;18.60;6.30;;;;;;;20.74;57.17;100906.52;108240;1253;60182;-66
2023/09/07 03:10:41;;;;;;;16.50;6.60;;;;;;;20.76;57.21;100911.05;108111;1253;72703;-66
2023/09/07 03:13:09;;;;;;;9.60;6.10;;;;;;;20.86;56.83;100913.35;108084;1253;69094;-67
2023/09/07 03:15:37;;;;;;;10.30;6.40;;;;;;;20.85;56.92;100917.73;108208;1253;72454;-67
2023/09/07 03:18:08;;;;;;;10.40;6.30;;;;;;;20.82;56.95;100918.11;108021;1253;61652;-67
2023/09/07 03:20:36;;;;;;;9.90;5.70;;;;;;;20.74;57.11;100922.73;108036;1253;60492;-65
2023/09/07 03:23:03;;;;;;;9.70;6.20;;;;;;;20.62;57.26;100922.83;108113;1253;74544;-66
2023/09/07 03:25:31;;;;;;;9.70;5.90;;;;;;;20.60;57.40;100922.23;107980;1259;69518;-67
2023/09/07 03:27:58;;;;;;;9.30;5.50;;;;;;;20.55;57.52;100928.77;108173;1253;72637;-64
2023/09/07 03:30:26;;;;;;;16.10;6.00;;;;;;;20.62;57.40;100931.73;107997;1256;60822;-67
2023/09/07 03:32:54;;;;;;;11.80;5.50;;;;;;;20.70;57.12;100938.48;108075;1256;60417;-66
2023/09/07 03:35:22;;;;;;;14.10;6.10;;;;;;;20.80;56.81;100944.30;108100;1253;73932;-66
2023/09/07 03:37:49;;;;;;;10.90;5.90;;;;;;;20.82;56.65;100947.71;108089;1253;70557;-66
2023/09/07 03:40:17;;;;;;;12.00;6.10;;;;;;;20.78;56.88;100948.72;108141;1253;72804;-66
2023/09/07 03:42:46;;;;;;;9.20;6.70;;;;;;;20.92;56.43;100953.82;108110;1256;60357;-67
2023/09/07 03:45:13;;;;;;;10.80;6.50;;;;;;;21.03;56.08;100953.45;108102;1253;60508;-66
2023/09/07 03:47:41;;;;;;;7.70;5.20;;;;;;;21.11;55.88;100962.90;108155;1253;72778;-66
2023/09/07 03:50:10;;;;;;;10.00;5.80;;;;;;;21.02;55.98;100963.88;108070;1253;68148;-67
2023/09/07 03:52:37;;;;;;;10.30;5.80;;;;;;;21.13;55.71;100969.38;108142;1253;73007;-67
2023/09/07 03:55:07;;;;;;;11.10;5.50;;;;;;;21.09;55.58;100970.14;108086;1253;61713;-67
2023/09/07 03:57:34;;;;;;;8.40;5.00;;;;;;;20.90;56.18;100967.16;108090;1252;60073;-67
2023/09/07 04:00:07;;;;;;;10.20;5.60;;;;;;;20.90;56.23;100967.34;108035;1252;72685;-67
2023/09/07 04:02:42;;;;;;;11.50;5.70;;;;;;;21.28;55.66;100972.84;108112;1253;69263;-66
2023/09/07 04:05:13;;;;;;;8.90;5.00;;;;;;;21.77;54.35;100974.26;108060;1253;72704;-68
2023/09/07 04:07:40;;;;;;;7.30;5.10;;;;;;;22.10;52.95;100970.47;108087;1253;60575;-67
2023/09/07 04:10:08;;;;;;;8.10;4.60;;;;;;;22.48;52.07;100969.70;108093;1253;60326;-67
2023/09/07 04:12:36;;;;;;;10.80;5.10;;;;;;;22.85;50.90;100968.98;108115;1252;73868;-66
2023/09/07 04:15:04;;;;;;;10.20;4.30;;;;;;;23.13;50.10;100969.36;108075;1257;71917;-65
2023/09/07 04:17:39;;;;;;;8.30;4.70;;;;;;;23.64;49.08;100974.95;108104;1253;72385;-66
2023/09/07 04:20:17;;;;;;;8.80;4.70;;;;;;;24.09;47.78;100971.17;108095;1253;60433;-66
2023/09/07 04:22:45;;;;;;;6.90;4.40;;;;;;;24.40;46.83;100975.67;108055;1252;60079;-67
2023/09/07 04:25:12;;;;;;;7.50;4.40;;;;;;;24.56;46.10;100973.27;108051;1256;74231;-66
2023/09/07 04:27:39;;;;;;;8.30;4.40;;;;;;;24.92;44.94;100977.36;108000;1254;70627;-69
2023/09/07 04:30:08;;;;;;;6.50;4.50;;;;;;;24.90;44.93;100978.39;107928;1254;72907;-67
2023/09/07 04:32:36;;;;;;;11.20;4.50;;;;;;;25.29;44.51;100982.13;107818;1259;61631;-66
2023/09/07 04:35:04;;;;;;;8.00;4.10;;;;;;;25.81;43.33;100980.68;108019;1254;62401;-67
2023/09/07 04:37:31;;;;;;;8.50;4.40;;;;;;;26.20;42.34;100979.38;108019;1254;72169;-69
2023/09/07 04:39:59;;;;;;;7.30;4.10;;;;;;;26.44;41.64;100979.81;107825;1254;68883;-67
2023/09/07 04:42:27;;;;;;;7.10;3.70;;;;;;;26.53;40.86;100979.53;107949;1254;72658;-67
2023/09/07 04:44:54;;;;;;;9.60;4.40;;;;;;;26.62;40.69;100980.70;107969;1254;60553;-67
2023/09/07 04:47:22;;;;;;;8.70;3.70;;;;;;;26.57;40.73;100982.05;107926;1254;60436;-67
2023/09/07 04:49:52;;;;;;;8.40;3.80;;;;;;;26.86;40.29;100982.30;107890;1259;74069;-67
2023/09/07 04:52:21;;;;;;;9.20;3.90;;;;;;;27.13;39.83;100986.98;107967;1255;69221;-67
2023/09/07 04:54:49;;;;;;;8.20;3.60;;;;;;;27.48;39.17;100989.45;107941;1255;72426;-69
2023/09/07 04:57:20;;;;;;;4.70;3.40;;;;;;;27.75;38.59;100988.20;107952;1255;60423;-67
2023/09/07 04:59:47;;;;;;;10.40;3.60;;;;;;;28.04;37.71;100985.80;107929;1254;60036;-66
2023/09/07 05:02:15;;;;;;;11.40;3.60;;;;;;;28.32;36.81;100984.41;107858;1259;75884;-68
2023/09/07 05:04:42;;;;;;;14.40;4.50;;;;;;;28.49;36.74;100984.93;107902;1258;69463;-67
2023/09/07 05:07:10;;;;;;;14.70;3.90;;;;;;;28.76;36.28;100989.29;107917;1254;71442;-68
2023/09/07 05:09:38;;;;;;;10.00;3.90;;;;;;;28.77;36.35;100986.88;108002;1254;60274;-67
2023/09/07 05:12:05;;;;;;;8.40;3.30;;;;;;;28.54;36.89;100985.58;107779;1256;60190;-68
2023/09/07 05:14:33;;;;;;;7.20;3.30;;;;;;;29.37;35.22;100991.46;107798;1254;72642;-68
2023/09/07 05:17:00;;;;;;;10.00;3.60;;;;;;;29.33;34.85;100993.91;107990;1254;69973;-67
2023/09/07 05:19:28;;;;;;;12.80;3.30;;;;;;;29.29;34.61;101000.40;107946;1254;72659;-67
2023/09/07 05:21:56;;;;;;;10.40;4.40;;;;;;;29.14;34.99;101001.39;107929;1254;58906;-69
2023/09/07 05:24:23;;;;;;;10.10;3.10;;;;;;;29.43;34.69;101003.36;107863;1254;59222;-67
2023/09/07 05:26:51;;;;;;;6.20;3.10;;;;;;;29.54;34.24;101009.28;108159;1253;73849;-68
2023/09/07 05:29:20;;;;;;;7.10;3.50;;;;;;;29.54;33.70;101011.64;108086;1253;68980;-67
2023/09/07 05:31:48;;;;;;;9.70;3.50;;;;;;;29.41;33.80;101011.52;108018;1255;71801;-68
2023/09/07 05:34:15;;;;;;;8.70;3.40;;;;;;;29.32;34.13;101010.59;108013;1253;60420;-66
2023/09/07 05:36:42;;;;;;;8.70;3.60;;;;;;;29.29;34.55;101007.11;108220;1253;60470;-68
2023/09/07 05:39:10;;;;;;;19.50;3.80;;;;;;;29.52;34.14;101008.51;108060;1253;73874;-68
2023/09/07 05:41:37;;;;;;;5.60;3.10;;;;;;;29.96;34.03;101008.82;108291;1253;68929;-68
2023/09/07 05:44:05;;;;;;;8.50;3.10;;;;;;;30.46;32.91;101012.42;108130;1253;72652;-67
2023/09/07 05:46:32;;;;;;;7.50;3.50;;;;;;;30.89;31.97;101010.57;108314;1251;60651;-67
2023/09/07 05:49:00;;;;;;;9.00;3.10;;;;;;;30.93;31.40;101012.08;108049;1252;60308;-68
2023/09/07 05:51:28;;;;;;;7.50;2.90;;;;;;;30.91;31.49;101010.58;108072;1252;73858;-68
2023/09/07 05:53:55;;;;;;;10.30;3.60;;;;;;;30.90;31.48;101014.20;108063;1253;70304;-68
2023/09/07 05:56:23;;;;;;;9.70;3.30;;;;;;;31.22;31.13;101012.92;107991;1252;71462;-69
2023/09/07 05:58:51;;;;;;;7.20;3.10;;;;;;;31.56;30.93;101015.33;107992;1255;60320;-69
2023/09/07 06:01:18;;;;;;;6.60;3.80;;;;;;;31.47;30.04;101019.74;108080;1251;60417;-68
2023/09/07 06:03:46;;;;;;;7.90;4.00;;;;;;;31.08;30.52;101019.36;108117;1253;74014;-69
2023/09/07 06:06:14;;;;;;;11.80;4.20;;;;;;;30.89;30.79;101019.58;108187;1253;68866;-67
2023/09/07 06:08:42;;;;;;;7.70;3.30;;;;;;;30.87;30.83;101020.01;108091;1257;72710;-68
2023/09/07 06:11:09;;;;;;;7.60;3.30;;;;;;;30.96;30.64;101021.21;107994;1253;60640;-69
2023/09/07 06:13:37;;;;;;;8.20;3.00;;;;;;;30.94;31.01;101025.80;108090;1253;60972;-68
2023/09/07 06:16:05;;;;;;;8.60;3.20;;;;;;;31.23;30.70;101022.17;108144;1251;72784;-68
2023/09/07 06:18:32;;;;;;;8.40;2.90;;;;;;;31.71;30.13;101027.28;108071;1253;70004;-69
2023/09/07 06:21:00;;;;;;;5.70;3.20;;;;;;;32.01;29.55;101029.87;108017;1253;73036;-68
2023/09/07 06:23:28;;;;;;;8.30;2.90;;;;;;;32.25;28.82;101025.13;108233;1253;60721;-68
2023/09/07 06:25:55;;;;;;;11.50;3.40;;;;;;;32.32;28.41;101031.49;108183;1251;60325;-67
2023/09/07 06:28:23;;;;;;;8.90;3.60;;;;;;;32.32;28.81;101035.59;108297;1251;73869;-68
2023/09/07 06:30:50;;;;;;;20.10;4.20;;;;;;;32.58;28.58;101036.98;108237;1251;70102;-68
2023/09/07 06:33:18;;;;;;;6.70;3.10;;;;;;;32.94;28.05;101038.41;108280;1251;72436;-68
2023/09/07 06:35:46;;;;;;;8.10;2.70;;;;;;;33.23;27.02;101044.91;108313;1252;60488;-68
2023/09/07 06:38:14;;;;;;;5.80;2.70;;;;;;;33.49;27.30;101042.59;108268;1251;60322;-69
2023/09/07 06:40:48;;;;;;;4.50;2.40;;;;;;;33.69;27.61;101046.20;108251;1256;64897;-67
2023/09/07 06:43:17;;;;;;;4.80;2.90;;;;;;;34.12;26.43;101047.02;108251;1251;69014;-69
2023/09/07 06:45:44;;;;;;;6.60;2.90;;;;;;;34.31;26.10;101049.56;108296;1254;63682;-69
2023/09/07 06:48:13;;;;;;;8.10;2.60;;;;;;;34.53;25.98;101049.21;108145;1254;60334;-67
2023/09/07 06:50:41;;;;;;;5.60;2.10;;;;;;;34.71;24.96;101047.50;108200;1251;59785;-66
2023/09/07 06:53:09;;;;;;;6.20;2.40;;;;;;;34.72;24.31;101049.37;108243;1251;64938;-67
2023/09/07 06:55:37;;;;;;;4.60;2.40;;;;;;;34.38;24.56;101050.73;108238;1251;61629;-67
2023/09/07 06:58:05;;;;;;;10.10;2.20;;;;;;;34.19;25.04;101055.36;108337;1252;62428;-68
2023/09/07 07:00:32;;;;;;;8.50;2.40;;;;;;;34.45;24.95;101061.89;108285;1251;60530;-68
2023/09/07 07:03:01;;;;;;;8.30;2.70;;;;;;;34.97;24.67;101061.77;108342;1251;60367;-68
2023/09/07 07:05:29;;;;;;;4.70;2.40;;;;;;;35.48;23.59;101060.21;108164;1251;72564;-67
2023/09/07 07:07:57;;;;;;;4.90;2.40;;;;;;;35.80;23.24;101058.44;108406;1251;61086;-69
2023/09/07 07:10:24;;;;;;;7.70;2.60;;;;;;;36.26;22.54;101057.50;108347;1254;62953;-69
2023/09/07 07:12:52;;;;;;;7.60;2.20;;;;;;;36.44;21.84;101052.56;108217;1251;60314;-68
2023/09/07 07:15:20;;;;;;;7.20;2.30;;;;;;;36.11;21.93;101052.91;108364;1251;60453;-67
2023/09/07 07:17:47;;;;;;;6.60;2.40;;;;;;;35.94;22.26;101053.18;108265;1253;63634;-68
2023/09/07 07:20:15;;;;;;;3.70;1.90;;;;;;;36.06;22.02;101055.03;108366;1251;61365;-69
2023/09/07 07:22:42;;;;;;;3.80;1.70;;;;;;;36.60;21.23;101053.95;108211;1257;62521;-68
2023/09/07 07:25:13;;;;;;;3.50;1.70;;;;;;;37.14;20.23;101053.23;108172;1251;61313;-68
2023/09/07 07:27:40;;;;;;;8.80;1.90;;;;;;;37.40;19.49;101052.86;108117;1253;61445;-68
2023/09/07 07:30:08;;;;;;;5.80;1.90;;;;;;;36.91;19.61;101053.99;108097;1253;63852;-68
2023/09/07 07:32:38;;;;;;;6.30;2.00;;;;;;;36.19;20.18;101057.59;108143;1253;60437;-69
2023/09/07 07:35:06;;;;;;;6.90;1.80;;;;;;;35.72;20.82;101055.99;108146;1253;63719;-69
2023/09/07 07:37:34;;;;;;;5.30;1.90;;;;;;;35.54;21.15;101057.27;108064;1253;58989;-68
2023/09/07 07:40:04;;;;;;;5.50;2.10;;;;;;;35.55;20.96;101058.54;108234;1256;59654;-68
2023/09/07 07:42:32;;;;;;;2.70;1.70;;;;;;;35.66;20.94;101060.20;108093;1253;65067;-68
2023/09/07 07:45:00;;;;;;;3.20;1.50;;;;;;;35.73;20.55;101058.40;108165;1253;61725;-71
2023/09/07 07:47:28;;;;;;;4.20;1.80;;;;;;;35.85;20.38;101061.86;108140;1253;63844;-67
2023/09/07 07:49:56;;;;;;;5.20;2.00;;;;;;;36.01;20.18;101058.63;108093;1253;60399;-67
2023/09/07 07:52:23;;;;;;;4.30;1.80;;;;;;;36.03;20.20;101060.50;108088;1256;60328;-68
2023/09/07 07:54:53;;;;;;;2.30;1.40;;;;;;;36.20;20.30;101060.40;108206;1253;64905;-69
2023/09/07 07:57:21;;;;;;;8.00;1.90;;;;;;;36.76;20.11;101057.42;108083;1253;61296;-69
2023/09/07 07:59:49;;;;;;;2.60;1.30;;;;;;;36.80;19.10;101058.09;108090;1253;63736;-69
2023/09/07 08:02:16;;;;;;;4.60;1.50;;;;;;;36.19;19.66;101059.02;108183;1253;60322;-69
2023/09/07 08:04:44;;;;;;;5.70;1.70;;;;;;;36.01;20.46;101058.41;108043;1253;60506;-69
2023/09/07 08:07:11;;;;;;;10.40;2.20;;;;;;;36.69;19.90;101057.43;108099;1252;64214;-69
2023/09/07 08:09:39;;;;;;;5.50;1.70;;;;;;;37.27;19.74;101053.53;108103;1253;61824;-69
2023/09/07 08:12:07;;;;;;;6.10;2.00;;;;;;;37.24;19.20;101054.80;108065;1253;63778;-68
2023/09/07 08:14:35;;;;;;;4.60;1.80;;;;;;;36.68;19.75;101060.05;108166;1251;59095;-68
2023/09/07 08:17:03;;;;;;;4.90;1.80;;;;;;;36.66;19.96;101056.69;108123;1253;60307;-68
2023/09/07 08:19:32;;;;;;;8.50;2.30;;;;;;;36.87;19.65;101058.27;108127;1252;64996;-67
2023/09/07 08:22:03;;;;;;;6.70;2.00;;;;;;;36.88;19.54;101059.92;108138;1253;61528;-69
2023/09/07 08:24:32;;;;;;;5.70;2.00;;;;;;;36.71;19.67;101061.40;108127;1253;62709;-68
2023/09/07 08:27:00;;;;;;;5.10;1.50;;;;;;;36.43;19.34;101062.20;108114;1253;59573;-69
2023/09/07 08:29:31;;;;;;;3.00;1.80;;;;;;;36.22;19.59;101062.73;108139;1253;60429;-69
2023/09/07 08:32:01;;;;;;;5.70;1.70;;;;;;;36.23;19.84;101065.23;108150;1252;64844;-67
2023/09/07 08:34:29;;;;;;;4.60;1.80;;;;;;;36.53;19.51;101070.86;108149;1253;60342;-68
2023/09/07 08:36:58;;;;;;;3.80;1.60;;;;;;;36.61;19.26;101068.63;108218;1256;63777;-68
2023/09/07 08:39:26;;;;;;;5.30;1.70;;;;;;;36.97;18.91;101065.47;108198;1253;60441;-67
2023/09/07 08:41:54;;;;;;;5.70;1.80;;;;;;;37.38;18.49;101067.36;108038;1252;60448;-67
2023/09/07 08:44:29;;;;;;;2.80;1.60;;;;;;;36.97;18.52;101074.21;108040;1253;64041;-68
2023/09/07 08:46:57;;;;;;;10.60;1.70;;;;;;;36.68;19.13;101070.67;108211;1252;61922;-67
2023/09/07 08:49:25;;;;;;;5.10;1.80;;;;;;;36.51;19.15;101076.55;107980;1260;63730;-68
2023/09/07 08:51:53;;;;;;;4.90;1.70;;;;;;;36.19;19.35;101080.94;107962;1253;60446;-68
2023/09/07 08:54:20;;;;;;;6.10;1.70;;;;;;;36.37;19.16;101076.39;108091;1253;60506;-68
2023/09/07 08:56:48;;;;;;;3.70;1.80;;;;;;;36.71;19.40;101075.02;108020;1253;65081;-67
2023/09/07 08:59:15;;;;;;;6.10;2.00;;;;;;;37.17;18.90;101078.66;108017;1253;61989;-67
2023/09/07 09:01:43;;;;;;;3.40;1.70;;;;;;;37.42;18.07;101073.23;107972;1253;74917;-69
2023/09/07 09:04:10;;;;;;;9.20;1.90;;;;;;;37.02;18.34;101073.39;108141;1253;60490;-68
2023/09/07 09:06:38;;;;;;;8.30;1.80;;;;;;;36.37;18.41;101077.82;108141;1253;60432;-68
2023/09/07 09:09:06;;;;;;;4.90;1.70;;;;;;;35.94;18.54;101077.61;108258;1252;64981;-67
2023/09/07 09:11:34;;;;;;;3.80;2.00;;;;;;;35.53;18.83;101077.41;108170;1253;61354;-68
2023/09/07 09:14:05;;;;;;;5.40;1.90;;;;;;;35.38;18.88;101076.59;108168;1253;63681;-68
2023/09/07 09:16:32;;;;;;;10.00;1.80;;;;;;;35.40;18.72;101075.64;108079;1253;58610;-68
2023/09/07 09:19:00;;;;;;;7.20;1.60;;;;;;;35.39;18.23;101078.03;108173;1257;60365;-69
2023/09/07 09:21:27;;;;;;;16.90;2.00;;;;;;;35.07;18.11;101084.90;108192;1253;63700;-69
2023/09/07 09:23:56;;;;;;;6.00;1.50;;;;;;;35.07;18.13;101090.73;108161;1253;60542;-69
2023/09/07 09:26:23;;;;;;;4.90;1.50;;;;;;;35.34;17.30;101083.87;108195;1253;64207;-69
2023/09/07 09:28:55;;;;;;;5.70;1.90;;;;;;;35.88;17.52;101080.83;108122;1255;60334;-66
2023/09/07 09:31:24;;;;;;;3.50;1.50;;;;;;;36.16;16.79;101090.70;108214;1253;60265;-68
2023/09/07 09:33:52;;;;;;;5.40;1.40;;;;;;;36.24;16.38;101091.97;108226;1253;65115;-67
2023/09/07 09:36:20;;;;;;;7.50;1.70;;;;;;;36.12;16.38;101086.41;108272;1253;60869;-68
2023/09/07 09:38:49;;;;;;;6.40;1.60;;;;;;;36.03;16.24;101089.18;108172;1253;74539;-68
2023/09/07 09:41:17;;;;;;;5.40;1.60;;;;;;;36.11;16.54;101091.52;107928;1256;218865;-66
2023/09/07 09:44:31;;;;;;;5.50;1.40;;;;;;;35.23;17.54;101089.71;104939;1291;600308;-68
2023/09/07 09:46:58;;;;;;;4.20;1.50;;;;;;;36.06;16.69;101091.64;107224;1266;59244;-68
2023/09/07 09:49:26;;;;;;;5.80;1.60;;;;;;;36.07;16.05;101092.38;107306;1266;58893;-67
2023/09/07 09:51:53;;;;;;;4.00;1.60;;;;;;;35.87;16.29;101097.50;107248;1266;63390;-66
2023/09/07 09:54:22;;;;;;;7.00;1.40;;;;;;;35.83;16.00;101097.21;107196;1266;60286;-70
2023/09/07 09:56:49;;;;;;;9.60;1.50;;;;;;;35.88;15.65;101097.42;107250;1266;62647;-67
2023/09/07 09:59:17;;;;;;;3.10;1.70;;;;;;;35.86;15.96;101099.81;107229;1262;203393;-69
2023/09/07 10:01:48;;;;;;;2.50;1.30;;;;;;;35.99;16.25;101096.87;107432;1262;59194;-69
2023/09/07 10:04:17;;;;;;;3.60;1.40;;;;;;;36.28;16.06;101096.73;107591;1259;65366;-69
2023/09/07 10:06:58;;;;;;;5.70;1.60;;;;;;;36.54;16.02;101097.03;107453;1259;61352;-67
2023/09/07 10:09:29;;;;;;;5.80;1.30;;;;;;;36.22;15.68;101095.16;107515;1261;63784;-68
2023/09/07 10:11:57;;;;;;;4.00;1.40;;;;;;;36.23;15.48;101095.94;107462;1260;59549;-68
2023/09/07 10:14:25;;;;;;;4.40;1.40;;;;;;;36.16;15.41;101099.08;107511;1261;59492;-67
2023/09/07 10:16:55;;;;;;;6.10;1.70;;;;;;;35.75;15.00;101104.73;107482;1261;64163;-68
2023/09/07 10:19:24;;;;;;;4.30;1.50;;;;;;;35.20;14.85;101105.19;107483;1260;61390;-68
2023/09/07 10:21:55;;;;;;;8.20;1.40;;;;;;;34.84;15.24;101101.91;107513;1261;64218;-69
2023/09/07 10:24:35;;;;;;;5.10;1.30;;;;;;;34.71;15.44;101102.09;107444;1265;59516;-67
2023/09/07 10:27:06;;;;;;;4.60;1.50;;;;;;;34.89;15.83;101097.38;107724;1256;59515;-67
2023/09/07 10:29:42;;;;;;;6.20;2.20;;;;;;;35.12;15.51;101099.58;107798;1258;64575;-68
2023/09/07 10:32:12;;;;;;;4.50;1.70;;;;;;;35.28;15.01;101102.15;107825;1256;61750;-68
2023/09/07 10:34:44;;;;;;;3.90;1.50;;;;;;;35.27;14.70;101094.77;107768;1262;63766;-68
2023/09/07 10:37:13;;;;;;;5.00;1.30;;;;;;;34.84;15.37;101091.08;107723;1256;59398;-68
2023/09/07 10:39:44;;;;;;;12.30;1.70;;;;;;;34.95;14.60;101094.08;107835;1256;59570;-67
2023/09/07 10:42:22;;;;;;;3.80;1.20;;;;;;;34.78;14.39;101095.52;107707;1256;63062;-69
2023/09/07 10:44:50;;;;;;;3.70;1.20;;;;;;;34.48;14.43;101099.55;107782;1256;60093;-68
2023/09/07 10:47:17;;;;;;;3.70;1.10;;;;;;;34.41;15.22;101096.13;107680;1258;63856;-68
2023/09/07 10:49:45;;;;;;;5.70;1.40;;;;;;;34.50;15.36;101100.07;107740;1256;60563;-67
2023/09/07 10:52:12;;;;;;;4.40;1.40;;;;;;;34.45;15.45;101100.98;107765;1256;59487;-67
2023/09/07 10:54:40;;;;;;;3.60;1.40;;;;;;;34.34;15.41;101093.67;107776;1262;64803;-68
2023/09/07 10:57:13;;;;;;;5.00;1.60;;;;;;;34.20;15.33;101092.68;107669;1256;60245;-67
2023/09/07 10:59:45;;;;;;;8.40;1.60;;;;;;;34.00;15.25;101088.09;107765;1258;72690;-67
2023/09/07 11:02:12;;;;;;;5.50;1.40;;;;;;;34.12;15.11;101088.32;107647;1256;59661;-67
2023/09/07 11:04:40;;;;;;;5.40;1.40;;;;;;;34.20;15.05;101089.61;107695;1256;59617;-66
2023/09/07 11:07:11;;;;;;;3.20;1.30;;;;;;;34.42;15.12;101087.35;107675;1256;63392;-67
2023/09/07 11:09:42;;;;;;;5.10;1.60;;;;;;;34.69;15.15;101083.13;107589;1256;62099;-67
2023/09/07 11:12:14;;;;;;;6.60;1.30;;;;;;;34.88;14.80;101082.05;107736;1256;62678;-67
2023/09/07 11:14:41;;;;;;;3.20;1.20;;;;;;;34.85;14.12;101084.23;107749;1256;59116;-67
2023/09/07 11:17:09;;;;;;;9.20;1.50;;;;;;;34.46;14.23;101085.25;107695;1256;59528;-67
2023/09/07 11:19:37;;;;;;;5.00;1.30;;;;;;;33.93;14.70;101083.92;107557;1256;64576;-67
2023/09/07 11:22:05;;;;;;;5.70;1.40;;;;;;;33.70;15.19;101081.64;107717;1256;61904;-69